sensor_id;sensor_type;location;lat;lon;timestamp;pressure;altitude;pressure_sealevel;temperature;humidity
35551;BME280;21655;46.056;13.616;2023-06-04T00:00:09;100403.84;;;20.13;100.00
35551;BME280;21655;46.056;13.616;2023-06-04T00:02:35;100407.53;;;19.84;100.00
35551;BME280;21655;46.056;13.616;2023-06-04T00:05:01;100415.69;;;19.74;100.00
35551;BME280;21655;46.056;13.616;2023-06-04T00:07:26;100407.91;;;19.58;100.00
35551;BME280;21655;46.056;13.616;2023-06-04T00:09:52;100415.50;;;19.40;100.00
35551;BME280;21655;46.056;13.616;2023-06-04T00:12:18;100410.81;;;19.16;100.00
35551;BME280;21655;46.056;13.616;2023-06-04T00:14:44;100412.66;;;18.86;100.00
35551;BME280;21655;46.056;13.616;2023-06-04T00:17:10;100408.06;;;18.92;100.00
35551;BME280;21655;46.056;13.616;2023-06-04T00:19:39;100407.75;;;18.82;100.00
35551;BME280;21655;46.056;13.616;2023-06-04T00:22:05;100402.75;;;18.84;100.00
35551;BME280;21655;46.056;13.616;2023-06-04T00:24:31;100404.84;;;18.88;100.00
35551;BME280;21655;46.056;13.616;2023-06-04T00:26:57;100400.19;;;18.82;100.00
35551;BME280;21655;46.056;13.616;2023-06-04T00:29:23;100405.72;;;18.71;100.00
35551;BME280;21655;46.056;13.616;2023-06-04T00:31:48;100408.41;;;18.59;100.00
35551;BME280;21655;46.056;13.616;2023-06-04T00:34:14;100395.38;;;18.65;100.00
35551;BME280;21655;46.056;13.616;2023-06-04T00:36:39;100393.22;;;18.85;100.00
35551;BME280;21655;46.056;13.616;2023-06-04T00:39:06;100394.41;;;18.95;100.00
35551;BME280;21655;46.056;13.616;2023-06-04T00:41:31;100396.50;;;18.99;100.00
35551;BME280;21655;46.056;13.616;2023-06-04T00:43:57;100394.56;;;19.00;100.00
35551;BME280;21655;46.056;13.616;2023-06-04T00:46:25;100389.41;;;19.15;100.00
35551;BME280;21655;46.056;13.616;2023-06-04T00:48:52;100377.00;;;19.40;100.00
35551;BME280;21655;46.056;13.616;2023-06-04T00:51:18;100381.63;;;19.64;100.00
35551;BME280;21655;46.056;13.616;2023-06-04T00:53:45;100384.47;;;19.76;100.00
35551;BME280;21655;46.056;13.616;2023-06-04T00:56:11;100380.22;;;19.73;100.00
35551;BME280;21655;46.056;13.616;2023-06-04T00:58:38;100392.94;;;19.76;100.00
35551;BME280;21655;46.056;13.616;2023-06-04T01:03:47;100384.84;;;19.68;100.00
35551;BME280;21655;46.056;13.616;2023-06-04T01:08:49;100385.88;;;18.84;100.00
35551;BME280;21655;46.056;13.616;2023-06-04T01:11:14;100386.06;;;18.71;100.00
35551;BME280;21655;46.056;13.616;2023-06-04T01:13:40;100384.84;;;18.60;100.00
35551;BME280;21655;46.056;13.616;2023-06-04T01:16:06;100381.66;;;18.57;100.00
35551;BME280;21655;46.056;13.616;2023-06-04T01:18:34;100381.47;;;18.52;100.00
35551;BME280;21655;46.056;13.616;2023-06-04T01:21:06;100377.72;;;18.40;100.00
35551;BME280;21655;46.056;13.616;2023-06-04T01:26:04;100373.94;;;18.28;100.00
35551;BME280;21655;46.056;13.616;2023-06-04T01:28:32;100375.59;;;18.35;100.00
35551;BME280;21655;46.056;13.616;2023-06-04T01:30:58;100373.78;;;18.65;100.00
35551;BME280;21655;46.056;13.616;2023-06-04T01:33:25;100370.50;;;19.04;100.00
35551;BME280;21655;46.056;13.616;2023-06-04T01:35:51;100364.00;;;19.28;100.00
35551;BME280;21655;46.056;13.616;2023-06-04T01:38:16;100361.84;;;19.41;100.00
35551;BME280;21655;46.056;13.616;2023-06-04T01:40:42;100362.59;;;19.48;100.00
35551;BME280;21655;46.056;13.616;2023-06-04T01:43:08;100369.50;;;19.34;100.00
35551;BME280;21655;46.056;13.616;2023-06-04T01:45:33;100364.25;;;19.38;100.00
35551;BME280;21655;46.056;13.616;2023-06-04T01:48:02;100372.66;;;19.56;100.00
35551;BME280;21655;46.056;13.616;2023-06-04T01:50:27;100375.16;;;19.64;100.00
35551;BME280;21655;46.056;13.616;2023-06-04T01:52:53;100369.75;;;19.33;100.00
35551;BME280;21655;46.056;13.616;2023-06-04T01:55:18;100372.56;;;19.15;100.00
35551;BME280;21655;46.056;13.616;2023-06-04T01:57:45;100382.88;;;19.21;100.00
35551;BME280;21655;46.056;13.616;2023-06-04T02:00:12;100382.84;;;19.03;100.00
35551;BME280;21655;46.056;13.616;2023-06-04T02:02:37;100376.13;;;18.68;100.00
35551;BME280;21655;46.056;13.616;2023-06-04T02:05:06;100386.88;;;18.71;100.00
35551;BME280;21655;46.056;13.616;2023-06-04T02:07:39;100372.91;;;18.65;100.00
35551;BME280;21655;46.056;13.616;2023-06-04T02:12:31;100380.63;;;18.51;100.00
35551;BME280;21655;46.056;13.616;2023-06-04T02:14:56;100374.91;;;18.82;100.00
35551;BME280;21655;46.056;13.616;2023-06-04T02:17:22;100373.19;;;18.99;100.00
35551;BME280;21655;46.056;13.616;2023-06-04T02:19:47;100370.50;;;19.04;100.00
35551;BME280;21655;46.056;13.616;2023-06-04T02:22:19;100378.47;;;19.07;100.00
35551;BME280;21655;46.056;13.616;2023-06-04T02:24:45;100363.66;;;19.00;100.00
35551;BME280;21655;46.056;13.616;2023-06-04T02:27:13;100361.31;;;18.97;100.00
35551;BME280;21655;46.056;13.616;2023-06-04T02:29:39;100366.31;;;18.95;100.00
35551;BME280;21655;46.056;13.616;2023-06-04T02:32:05;100367.31;;;18.83;100.00
35551;BME280;21655;46.056;13.616;2023-06-04T02:34:31;100372.81;;;18.53;100.00
35551;BME280;21655;46.056;13.616;2023-06-04T02:36:57;100358.34;;;18.25;100.00
35551;BME280;21655;46.056;13.616;2023-06-04T02:39:23;100366.63;;;18.20;100.00
35551;BME280;21655;46.056;13.616;2023-06-04T02:41:49;100364.91;;;18.19;100.00
35551;BME280;21655;46.056;13.616;2023-06-04T02:44:14;100367.59;;;18.08;100.00
35551;BME280;21655;46.056;13.616;2023-06-04T02:46:40;100372.13;;;18.09;100.00
35551;BME280;21655;46.056;13.616;2023-06-04T02:49:05;100380.81;;;18.01;100.00
35551;BME280;21655;46.056;13.616;2023-06-04T02:51:31;100374.03;;;17.84;100.00
35551;BME280;21655;46.056;13.616;2023-06-04T02:53:57;100369.97;;;17.80;100.00
35551;BME280;21655;46.056;13.616;2023-06-04T02:56:23;100370.19;;;17.78;100.00
35551;BME280;21655;46.056;13.616;2023-06-04T02:58:52;100377.09;;;17.82;100.00
35551;BME280;21655;46.056;13.616;2023-06-04T03:01:21;100379.59;;;17.90;100.00
35551;BME280;21655;46.056;13.616;2023-06-04T03:03:47;100386.75;;;17.86;100.00
35551;BME280;21655;46.056;13.616;2023-06-04T03:06:13;100384.16;;;17.85;100.00
35551;BME280;21655;46.056;13.616;2023-06-04T03:08:42;100381.56;;;17.90;100.00
35551;BME280;21655;46.056;13.616;2023-06-04T03:11:07;100402.38;;;17.76;100.00
35551;BME280;21655;46.056;13.616;2023-06-04T03:13:33;100401.03;;;17.78;100.00
35551;BME280;21655;46.056;13.616;2023-06-04T03:15:58;100401.94;;;17.72;100.00
35551;BME280;21655;46.056;13.616;2023-06-04T03:18:28;100410.41;;;17.66;100.00
35551;BME280;21655;46.056;13.616;2023-06-04T03:20:54;100405.38;;;17.74;100.00
35551;BME280;21655;46.056;13.616;2023-06-04T03:23:20;100398.91;;;17.80;100.00
35551;BME280;21655;46.056;13.616;2023-06-04T03:25:46;100408.78;;;17.83;100.00
35551;BME280;21655;46.056;13.616;2023-06-04T03:28:12;100407.03;;;17.88;100.00
35551;BME280;21655;46.056;13.616;2023-06-04T03:30:37;100414.25;;;17.71;100.00
35551;BME280;21655;46.056;13.616;2023-06-04T03:33:03;100408.00;;;17.69;100.00
35551;BME280;21655;46.056;13.616;2023-06-04T03:35:28;100406.72;;;17.72;100.00
35551;BME280;21655;46.056;13.616;2023-06-04T03:37:54;100417.03;;;17.78;100.00
35551;BME280;21655;46.056;13.616;2023-06-04T03:40:19;100416.16;;;17.77;100.00
35551;BME280;21655;46.056;13.616;2023-06-04T03:42:45;100407.88;;;17.58;100.00
35551;BME280;21655;46.056;13.616;2023-06-04T03:45:10;100411.66;;;17.70;100.00
35551;BME280;21655;46.056;13.616;2023-06-04T03:47:38;100414.47;;;17.70;100.00
35551;BME280;21655;46.056;13.616;2023-06-04T03:50:04;100408.25;;;17.61;100.00
35551;BME280;21655;46.056;13.616;2023-06-04T03:52:30;100403.31;;;17.63;100.00
35551;BME280;21655;46.056;13.616;2023-06-04T03:54:56;100406.47;;;17.73;100.00
35551;BME280;21655;46.056;13.616;2023-06-04T03:57:21;100414.25;;;17.71;100.00
35551;BME280;21655;46.056;13.616;2023-06-04T03:59:47;100408.06;;;17.63;100.00
35551;BME280;21655;46.056;13.616;2023-06-04T04:02:12;100416.78;;;17.48;100.00
35551;BME280;21655;46.056;13.616;2023-06-04T04:04:38;100409.13;;;17.62;100.00
35551;BME280;21655;46.056;13.616;2023-06-04T04:07:03;100409.44;;;17.78;100.00
35551;BME280;21655;46.056;13.616;2023-06-04T04:09:28;100417.81;;;17.85;100.00
35551;BME280;21655;46.056;13.616;2023-06-04T04:11:54;100418.41;;;17.93;100.00
35551;BME280;21655;46.056;13.616;2023-06-04T04:14:19;100414.53;;;17.94;100.00
35551;BME280;21655;46.056;13.616;2023-06-04T04:16:45;100427.63;;;18.07;100.00
35551;BME280;21655;46.056;13.616;2023-06-04T04:19:10;100415.44;;;18.19;100.00
35551;BME280;21655;46.056;13.616;2023-06-04T04:21:37;100416.66;;;18.30;100.00
35551;BME280;21655;46.056;13.616;2023-06-04T04:24:03;100426.25;;;18.47;100.00
35551;BME280;21655;46.056;13.616;2023-06-04T04:26:29;100419.19;;;18.62;100.00
35551;BME280;21655;46.056;13.616;2023-06-04T04:28:55;100412.03;;;18.66;100.00
35551;BME280;21655;46.056;13.616;2023-06-04T04:31:26;100419.66;;;18.77;100.00
35551;BME280;21655;46.056;13.616;2023-06-04T04:33:51;100414.91;;;18.78;100.00
35551;BME280;21655;46.056;13.616;2023-06-04T04:36:17;100417.72;;;18.78;100.00
35551;BME280;21655;46.056;13.616;2023-06-04T04:38:44;100414.09;;;18.95;100.00
35551;BME280;21655;46.056;13.616;2023-06-04T04:41:10;100413.25;;;19.30;100.00
35551;BME280;21655;46.056;13.616;2023-06-04T04:43:37;100404.84;;;19.60;100.00
35551;BME280;21655;46.056;13.616;2023-06-04T04:46:06;100399.19;;;20.07;100.00
35551;BME280;21655;46.056;13.616;2023-06-04T04:48:32;100396.31;;;20.48;100.00
35551;BME280;21655;46.056;13.616;2023-06-04T04:50:58;100401.94;;;20.37;100.00
35551;BME280;21655;46.056;13.616;2023-06-04T04:53:24;100401.13;;;20.59;100.00
35551;BME280;21655;46.056;13.616;2023-06-04T04:55:49;100394.00;;;20.45;100.00
35551;BME280;21655;46.056;13.616;2023-06-04T04:58:15;100389.63;;;20.61;100.00
35551;BME280;21655;46.056;13.616;2023-06-04T05:00:41;100407.00;;;20.58;100.00
35551;BME280;21655;46.056;13.616;2023-06-04T05:03:06;100396.84;;;20.68;100.00
35551;BME280;21655;46.056;13.616;2023-06-04T05:05:32;100401.72;;;20.73;100.00
35551;BME280;21655;46.056;13.616;2023-06-04T05:07:58;100403.31;;;20.46;100.00
35551;BME280;21655;46.056;13.616;2023-06-04T05:10:24;100408.56;;;20.31;100.00
35551;BME280;21655;46.056;13.616;2023-06-04T05:12:53;100408.78;;;20.18;100.00
35551;BME280;21655;46.056;13.616;2023-06-04T05:15:18;100402.41;;;20.11;100.00
35551;BME280;21655;46.056;13.616;2023-06-04T05:17:45;100413.22;;;19.96;100.00
35551;BME280;21655;46.056;13.616;2023-06-04T05:20:12;100410.53;;;20.01;100.00
35551;BME280;21655;46.056;13.616;2023-06-04T05:22:38;100410.81;;;19.81;100.00
35551;BME280;21655;46.056;13.616;2023-06-04T05:25:04;100413.72;;;19.75;100.00
35551;BME280;21655;46.056;13.616;2023-06-04T05:27:31;100406.78;;;19.77;100.00
35551;BME280;21655;46.056;13.616;2023-06-04T05:29:57;100407.97;;;19.70;100.00
35551;BME280;21655;46.056;13.616;2023-06-04T05:32:23;100402.34;;;19.70;100.00
35551;BME280;21655;46.056;13.616;2023-06-04T05:34:49;100406.78;;;19.77;100.00
35551;BME280;21655;46.056;13.616;2023-06-04T05:37:14;100403.97;;;19.77;100.00
35551;BME280;21655;46.056;13.616;2023-06-04T05:39:42;100407.56;;;19.66;100.00
35551;BME280;21655;46.056;13.616;2023-06-04T05:42:08;100407.53;;;19.55;100.00
35551;BME280;21655;46.056;13.616;2023-06-04T05:44:34;100399.78;;;19.50;100.00
35551;BME280;21655;46.056;13.616;2023-06-04T05:46:59;100405.75;;;19.42;100.00
35551;BME280;21655;46.056;13.616;2023-06-04T05:49:25;100414.09;;;18.95;100.00
35551;BME280;21655;46.056;13.616;2023-06-04T05:51:51;100432.25;;;19.17;100.00
35551;BME280;21655;46.056;13.616;2023-06-04T05:54:16;100433.59;;;19.08;100.00
35551;BME280;21655;46.056;13.616;2023-06-04T05:56:42;100447.38;;;19.16;100.00
35551;BME280;21655;46.056;13.616;2023-06-04T05:59:07;100455.16;;;19.20;100.00
35551;BME280;21655;46.056;13.616;2023-06-04T06:01:33;100450.69;;;19.31;100.00
35551;BME280;21655;46.056;13.616;2023-06-04T06:03:58;100455.38;;;19.37;100.00
35551;BME280;21655;46.056;13.616;2023-06-04T06:06:23;100458.25;;;19.48;100.00
35551;BME280;21655;46.056;13.616;2023-06-04T06:08:49;100462.22;;;19.59;100.00
35551;BME280;21655;46.056;13.616;2023-06-04T06:11:17;100466.84;;;19.71;100.00
35551;BME280;21655;46.056;13.616;2023-06-04T06:13:43;100476.28;;;19.77;100.00
35551;BME280;21655;46.056;13.616;2023-06-04T06:16:10;100479.19;;;19.70;100.00
35551;BME280;21655;46.056;13.616;2023-06-04T06:18:35;100477.75;;;19.79;100.00
35551;BME280;21655;46.056;13.616;2023-06-04T06:21:01;100490.03;;;19.85;100.00
35551;BME280;21655;46.056;13.616;2023-06-04T06:23:26;100492.28;;;19.94;100.00
35551;BME280;21655;46.056;13.616;2023-06-04T06:25:52;100517.94;;;19.68;100.00
35551;BME280;21655;46.056;13.616;2023-06-04T06:28:18;100531.78;;;19.34;100.00
35551;BME280;21655;46.056;13.616;2023-06-04T06:30:44;100538.84;;;19.18;100.00
35551;BME280;21655;46.056;13.616;2023-06-04T06:33:09;100530.34;;;19.25;100.00
35551;BME280;21655;46.056;13.616;2023-06-04T06:35:35;100517.56;;;19.29;100.00
35551;BME280;21655;46.056;13.616;2023-06-04T06:38:01;100524.34;;;19.39;100.00
35551;BME280;21655;46.056;13.616;2023-06-04T06:40:26;100530.59;;;19.41;100.00
35551;BME280;21655;46.056;13.616;2023-06-04T06:42:52;100529.72;;;19.23;100.00
35551;BME280;21655;46.056;13.616;2023-06-04T06:45:20;100514.56;;;18.99;100.00
35551;BME280;21655;46.056;13.616;2023-06-04T06:47:45;100517.63;;;18.98;100.00
35551;BME280;21655;46.056;13.616;2023-06-04T06:50:11;100517.75;;;18.85;100.00
35551;BME280;21655;46.056;13.616;2023-06-04T06:52:37;100522.78;;;18.77;100.00
35551;BME280;21655;46.056;13.616;2023-06-04T06:55:04;100521.22;;;18.81;100.00
35551;BME280;21655;46.056;13.616;2023-06-04T06:57:29;100515.03;;;18.72;100.00
35551;BME280;21655;46.056;13.616;2023-06-04T06:59:55;100516.22;;;18.83;100.00
35551;BME280;21655;46.056;13.616;2023-06-04T07:02:21;100525.50;;;18.90;100.00
35551;BME280;21655;46.056;13.616;2023-06-04T07:04:46;100524.78;;;18.94;100.00
35551;BME280;21655;46.056;13.616;2023-06-04T07:07:12;100526.84;;;19.05;100.00
35551;BME280;21655;46.056;13.616;2023-06-04T07:09:37;100527.84;;;19.17;100.00
35551;BME280;21655;46.056;13.616;2023-06-04T07:12:03;100523.47;;;19.21;100.00
35551;BME280;21655;46.056;13.616;2023-06-04T07:14:28;100526.28;;;19.21;100.00
35551;BME280;21655;46.056;13.616;2023-06-04T07:16:54;100545.56;;;19.17;100.00
35551;BME280;21655;46.056;13.616;2023-06-04T07:19:19;100545.34;;;19.19;100.00
35551;BME280;21655;46.056;13.616;2023-06-04T07:21:45;100542.53;;;19.19;100.00
35551;BME280;21655;46.056;13.616;2023-06-04T07:24:10;100530.81;;;18.98;100.00
35551;BME280;21655;46.056;13.616;2023-06-04T07:26:36;100543.09;;;19.03;100.00
35551;BME280;21655;46.056;13.616;2023-06-04T07:29:02;100551.41;;;18.92;100.00
35551;BME280;21655;46.056;13.616;2023-06-04T07:31:27;100557.28;;;19.08;100.00
35551;BME280;21655;46.056;13.616;2023-06-04T07:33:53;100573.44;;;18.95;100.00
35551;BME280;21655;46.056;13.616;2023-06-04T07:36:18;100568.31;;;18.85;100.00
35551;BME280;21655;46.056;13.616;2023-06-04T07:38:45;100580.84;;;18.58;100.00
35551;BME280;21655;46.056;13.616;2023-06-04T07:41:11;100580.56;;;18.35;100.00
35551;BME280;21655;46.056;13.616;2023-06-04T07:43:36;100578.34;;;18.44;100.00
35551;BME280;21655;46.056;13.616;2023-06-04T07:46:03;100583.59;;;18.34;100.00
35551;BME280;21655;46.056;13.616;2023-06-04T07:48:28;100587.72;;;18.31;100.00
35551;BME280;21655;46.056;13.616;2023-06-04T07:51:01;100590.06;;;18.34;100.00
35551;BME280;21655;46.056;13.616;2023-06-04T07:53:28;100590.75;;;18.30;100.00
35551;BME280;21655;46.056;13.616;2023-06-04T07:55:54;100595.53;;;18.29;100.00
35551;BME280;21655;46.056;13.616;2023-06-04T07:58:19;100598.31;;;18.29;100.00
35551;BME280;21655;46.056;13.616;2023-06-04T08:00:45;100596.59;;;18.22;100.00
35551;BME280;21655;46.056;13.616;2023-06-04T08:03:10;100597.22;;;18.24;100.00
35551;BME280;21655;46.056;13.616;2023-06-04T08:05:36;100596.75;;;18.40;100.00
35551;BME280;21655;46.056;13.616;2023-06-04T08:08:02;100604.34;;;18.20;100.00
35551;BME280;21655;46.056;13.616;2023-06-04T08:10:28;100602.44;;;18.20;100.00
35551;BME280;21655;46.056;13.616;2023-06-04T08:12:54;100608.69;;;18.29;100.00
35551;BME280;21655;46.056;13.616;2023-06-04T08:15:20;100608.94;;;18.14;100.00
35551;BME280;21655;46.056;13.616;2023-06-04T08:17:45;100609.78;;;18.15;100.00
35551;BME280;21655;46.056;13.616;2023-06-04T08:20:11;100611.91;;;18.26;100.00
35551;BME280;21655;46.056;13.616;2023-06-04T08:22:36;100615.81;;;18.31;100.00
35551;BME280;21655;46.056;13.616;2023-06-04T08:25:02;100625.25;;;18.37;100.00
35551;BME280;21655;46.056;13.616;2023-06-04T08:27:28;100620.72;;;18.36;100.00
35551;BME280;21655;46.056;13.616;2023-06-04T08:29:54;100618.13;;;18.41;100.00
35551;BME280;21655;46.056;13.616;2023-06-04T08:32:20;100628.63;;;18.52;100.00
35551;BME280;21655;46.056;13.616;2023-06-04T08:34:46;100633.84;;;18.48;100.00
35551;BME280;21655;46.056;13.616;2023-06-04T08:37:11;100639.72;;;18.40;100.00
35551;BME280;21655;46.056;13.616;2023-06-04T08:39:37;100648.88;;;18.29;100.00
35551;BME280;21655;46.056;13.616;2023-06-04T08:42:06;100650.34;;;18.25;100.00
35551;BME280;21655;46.056;13.616;2023-06-04T08:44:34;100654.63;;;18.41;100.00
35551;BME280;21655;46.056;13.616;2023-06-04T08:47:04;100656.31;;;18.48;100.00
35551;BME280;21655;46.056;13.616;2023-06-04T08:49:35;100661.69;;;18.50;100.00
35551;BME280;21655;46.056;13.616;2023-06-04T08:52:03;100659.66;;;18.19;100.00
35551;BME280;21655;46.056;13.616;2023-06-04T08:54:29;100659.44;;;18.27;100.00
35551;BME280;21655;46.056;13.616;2023-06-04T08:56:56;100659.41;;;18.34;100.00
35551;BME280;21655;46.056;13.616;2023-06-04T08:59:23;100664.84;;;18.29;100.00
35551;BME280;21655;46.056;13.616;2023-06-04T09:01:52;100665.69;;;18.23;100.00
35551;BME280;21655;46.056;13.616;2023-06-04T09:04:18;100663.28;;;18.26;100.00
35551;BME280;21655;46.056;13.616;2023-06-04T09:06:44;100666.09;;;18.26;100.00
35551;BME280;21655;46.056;13.616;2023-06-04T09:09:11;100660.28;;;18.34;100.00
35551;BME280;21655;46.056;13.616;2023-06-04T09:11:51;100662.84;;;18.36;100.00
35551;BME280;21655;46.056;13.616;2023-06-04T09:14:17;100653.56;;;18.35;100.00
35551;BME280;21655;46.056;13.616;2023-06-04T09:16:50;100644.25;;;18.41;100.00
35551;BME280;21655;46.056;13.616;2023-06-04T09:19:17;100658.56;;;18.33;100.00
35551;BME280;21655;46.056;13.616;2023-06-04T09:24:13;100653.13;;;18.38;100.00
35551;BME280;21655;46.056;13.616;2023-06-04T09:26:38;100650.91;;;18.47;100.00
35551;BME280;21655;46.056;13.616;2023-06-04T09:29:04;100649.34;;;18.57;100.00
35551;BME280;21655;46.056;13.616;2023-06-04T09:31:31;100636.88;;;18.47;100.00
35551;BME280;21655;46.056;13.616;2023-06-04T09:34:02;100636.69;;;18.42;100.00
35551;BME280;21655;46.056;13.616;2023-06-04T09:36:31;100638.78;;;18.53;100.00
35551;BME280;21655;46.056;13.616;2023-06-04T09:38:57;100642.47;;;18.53;100.00
35551;BME280;21655;46.056;13.616;2023-06-04T09:41:23;100640.75;;;18.52;100.00
35551;BME280;21655;46.056;13.616;2023-06-04T09:43:49;100637.63;;;18.67;100.00
35551;BME280;21655;46.056;13.616;2023-06-04T09:46:16;100636.91;;;18.78;100.00
35551;BME280;21655;46.056;13.616;2023-06-04T09:48:43;100641.50;;;18.66;100.00
35551;BME280;21655;46.056;13.616;2023-06-04T09:51:14;100642.28;;;18.48;100.00
35551;BME280;21655;46.056;13.616;2023-06-04T09:53:58;100634.69;;;18.49;100.00
35551;BME280;21655;46.056;13.616;2023-06-04T09:56:24;100641.59;;;18.53;100.00
35551;BME280;21655;46.056;13.616;2023-06-04T09:58:53;100642.66;;;18.52;100.00
35551;BME280;21655;46.056;13.616;2023-06-04T10:01:20;100634.97;;;18.78;100.00
35551;BME280;21655;46.056;13.616;2023-06-04T10:03:47;100627.16;;;18.80;100.00
35551;BME280;21655;46.056;13.616;2023-06-04T10:06:16;100627.47;;;18.97;100.00
35551;BME280;21655;46.056;13.616;2023-06-04T10:08:45;100622.94;;;18.96;100.00
35551;BME280;21655;46.056;13.616;2023-06-04T10:11:12;100620.22;;;18.83;100.00
35551;BME280;21655;46.056;13.616;2023-06-04T10:13:45;100629.22;;;18.91;100.00
35551;BME280;21655;46.056;13.616;2023-06-04T10:16:13;100616.53;;;19.13;100.00
35551;BME280;21655;46.056;13.616;2023-06-04T10:18:39;100611.38;;;19.34;100.00
35551;BME280;21655;46.056;13.616;2023-06-04T10:21:06;100605.38;;;19.31;100.00
35551;BME280;21655;46.056;13.616;2023-06-04T10:23:33;100603.44;;;19.49;100.00
35551;BME280;21655;46.056;13.616;2023-06-04T10:25:59;100602.06;;;19.58;100.00
35551;BME280;21655;46.056;13.616;2023-06-04T10:28:25;100607.28;;;19.73;100.00
35551;BME280;21655;46.056;13.616;2023-06-04T10:30:51;100604.34;;;19.86;100.00
35551;BME280;21655;46.056;13.616;2023-06-04T10:33:18;100592.41;;;20.08;100.00
35551;BME280;21655;46.056;13.616;2023-06-04T10:35:45;100591.97;;;20.23;100.00
35551;BME280;21655;46.056;13.616;2023-06-04T10:38:12;100592.84;;;20.53;100.00
35551;BME280;21655;46.056;13.616;2023-06-04T10:40:42;100589.44;;;20.62;100.00
35551;BME280;21655;46.056;13.616;2023-06-04T10:43:12;100595.28;;;20.79;100.00
35551;BME280;21655;46.056;13.616;2023-06-04T10:45:39;100601.78;;;21.20;100.00
35551;BME280;21655;46.056;13.616;2023-06-04T10:48:06;100592.00;;;21.45;100.00
35551;BME280;21655;46.056;13.616;2023-06-04T10:50:33;100590.28;;;21.56;100.00
35551;BME280;21655;46.056;13.616;2023-06-04T10:52:59;100593.97;;;21.68;100.00
35551;BME280;21655;46.056;13.616;2023-06-04T10:55:28;100586.91;;;22.05;100.00
35551;BME280;21655;46.056;13.616;2023-06-04T11:00:21;100594.53;;;22.04;100.00
35551;BME280;21655;46.056;13.616;2023-06-04T11:03:06;100585.78;;;22.17;100.00
35551;BME280;21655;46.056;13.616;2023-06-04T11:05:47;100589.50;;;22.57;100.00
35551;BME280;21655;46.056;13.616;2023-06-04T11:08:14;100583.25;;;22.72;100.00
35551;BME280;21655;46.056;13.616;2023-06-04T11:10:42;100576.78;;;23.04;100.00
35551;BME280;21655;46.056;13.616;2023-06-04T11:13:07;100578.28;;;23.39;100.00
35551;BME280;21655;46.056;13.616;2023-06-04T11:15:42;100570.03;;;23.54;100.00
35551;BME280;21655;46.056;13.616;2023-06-04T11:18:13;100572.50;;;23.84;100.00
35551;BME280;21655;46.056;13.616;2023-06-04T11:20:39;100570.00;;;23.71;100.00
35551;BME280;21655;46.056;13.616;2023-06-04T11:23:05;100570.81;;;24.47;100.00
35551;BME280;21655;46.056;13.616;2023-06-04T11:25:31;100566.56;;;24.50;100.00
35551;BME280;21655;46.056;13.616;2023-06-04T11:27:58;100577.44;;;25.06;100.00
35551;BME280;21655;46.056;13.616;2023-06-04T11:30:25;100571.53;;;25.12;100.00
35551;BME280;21655;46.056;13.616;2023-06-04T11:33:02;100573.84;;;25.15;100.00
35551;BME280;21655;46.056;13.616;2023-06-04T11:35:28;100570.31;;;25.03;100.00
35551;BME280;21655;46.056;13.616;2023-06-04T11:37:55;100570.09;;;25.77;100.00
35551;BME280;21655;46.056;13.616;2023-06-04T11:40:21;100561.91;;;25.44;100.00
35551;BME280;21655;46.056;13.616;2023-06-04T11:42:47;100563.72;;;24.98;100.00
35551;BME280;21655;46.056;13.616;2023-06-04T11:45:14;100559.41;;;24.64;100.00
35551;BME280;21655;46.056;13.616;2023-06-04T11:47:44;100556.94;;;24.51;100.00
35551;BME280;21655;46.056;13.616;2023-06-04T11:50:11;100562.63;;;24.51;100.00
35551;BME280;21655;46.056;13.616;2023-06-04T11:52:37;100557.09;;;24.18;100.00
35551;BME280;21655;46.056;13.616;2023-06-04T11:55:03;100552.91;;;24.20;100.00
35551;BME280;21655;46.056;13.616;2023-06-04T11:57:29;100546.88;;;24.17;100.00
35551;BME280;21655;46.056;13.616;2023-06-04T11:59:55;100545.53;;;23.81;100.00
35551;BME280;21655;46.056;13.616;2023-06-04T12:02:20;100553.34;;;23.74;100.00
35551;BME280;21655;46.056;13.616;2023-06-04T12:04:46;100547.56;;;23.48;100.00
35551;BME280;21655;46.056;13.616;2023-06-04T12:07:19;100545.41;;;23.55;100.00
35551;BME280;21655;46.056;13.616;2023-06-04T12:09:46;100542.09;;;23.79;100.00
35551;BME280;21655;46.056;13.616;2023-06-04T12:12:11;100540.56;;;23.88;100.00
35551;BME280;21655;46.056;13.616;2023-06-04T12:14:37;100541.34;;;24.27;100.00
35551;BME280;21655;46.056;13.616;2023-06-04T12:17:08;100545.72;;;24.82;100.00
35551;BME280;21655;46.056;13.616;2023-06-04T12:19:46;100549.81;;;24.70;100.00
35551;BME280;21655;46.056;13.616;2023-06-04T12:22:12;100551.59;;;24.76;100.00
35551;BME280;21655;46.056;13.616;2023-06-04T12:24:54;100546.38;;;24.68;100.00
35551;BME280;21655;46.056;13.616;2023-06-04T12:27:22;100546.47;;;24.73;100.00
35551;BME280;21655;46.056;13.616;2023-06-04T12:30:04;100551.03;;;25.05;100.00
35551;BME280;21655;46.056;13.616;2023-06-04T12:32:35;100542.00;;;25.39;100.00
35551;BME280;21655;46.056;13.616;2023-06-04T12:35:01;100545.81;;;25.60;100.00
35551;BME280;21655;46.056;13.616;2023-06-04T12:37:27;100537.13;;;25.71;100.00
35551;BME280;21655;46.056;13.616;2023-06-04T12:39:53;100531.88;;;25.53;100.00
35551;BME280;21655;46.056;13.616;2023-06-04T12:42:19;100517.56;;;25.38;100.00